This is the latest recevied weather packets stored in our database for station/object KF0EZB. If no packets are shown the sender has not sent any weather packets the latest 1 day(s).
| Time | Temp. | Humidity | Pressure | Rain* | Wind** | Luminosity | Snow |
|---|---|---|---|---|---|---|---|
| 1777985185 | 10° C | 58% | 1010.3 hPa | 0 mm | 2.68 m/s, 115° | 25 W/m² | - |
| 1777984882 | 10° C | 58% | 1010.2 hPa | 0 mm | 2.68 m/s, 61° | 38 W/m² | - |
| 1777984586 | 10° C | 58% | 1010 hPa | 0 mm | 3.13 m/s, 26° | 40 W/m² | - |
| 1777984274 | 10° C | 58% | 1009.8 hPa | 0 mm | 3.13 m/s, 61° | 33 W/m² | - |
| 1777983971 | 10° C | 58% | 1009.8 hPa | 0 mm | 1.79 m/s, 102° | 17 W/m² | - |
| 1777983669 | 10° C | 58% | 1009.8 hPa | 0 mm | 2.24 m/s, 82° | 12 W/m² | - |
| 1777983365 | 10° C | 58% | 1009.6 hPa | 0 mm | 0.89 m/s, 54° | 11 W/m² | - |
| 1777983062 | 10° C | 58% | 1009.3 hPa | 0 mm | 4.02 m/s, 77° | 14 W/m² | - |
| 1777982758 | 10° C | 58% | 1009.7 hPa | 0 mm | 0.89 m/s, 85° | 6 W/m² | - |
| 1777982454 | 10° C | 58% | 1009.5 hPa | 0 mm | 1.79 m/s, 60° | 7 W/m² | - |
| 1777982148 | 10° C | 57% | 1009.4 hPa | 0 mm | 2.24 m/s, 44° | 3 W/m² | - |
| 1777981846 | 10° C | 57% | 1009.2 hPa | 0 mm | 2.68 m/s, 50° | 4 W/m² | - |
| 1777981543 | 10.56° C | 57% | 1009.6 hPa | 0 mm | 0.45 m/s, 58° | 2 W/m² | - |
| 1777981239 | 10.56° C | 56% | 1009.6 hPa | 0 mm | 1.34 m/s, 60° | 0 W/m² | - |
| 1777980936 | 10.56° C | 56% | 1009.4 hPa | 0 mm | 3.58 m/s, 54° | 0 W/m² | - |
| 1777980632 | 10.56° C | 55% | 1009.3 hPa | 0 mm | 0.89 m/s, 88° | 0 W/m² | - |
| 1777980328 | 10.56° C | 55% | 1009.4 hPa | 0 mm | 2.24 m/s, 69° | 0 W/m² | - |
| 1777980026 | 10.56° C | 55% | 1009.1 hPa | 0 mm | 1.79 m/s, 66° | 0 W/m² | - |
| 1777979720 | 10.56° C | 54% | 1009.2 hPa | 0 mm | 2.68 m/s, 56° | 0 W/m² | - |
| 1777979417 | 10.56° C | 53% | 1009.2 hPa | 0 mm | 2.24 m/s, 57° | 0 W/m² | - |
| 1777979114 | 10.56° C | 53% | 1009 hPa | 0 mm | 1.79 m/s, 74° | 0 W/m² | - |
| 1777978810 | 10.56° C | 52% | 1009.1 hPa | 0 mm | 4.47 m/s, 44° | 0 W/m² | - |
| 1777978507 | 11.11° C | 52% | 1008.8 hPa | 0 mm | 4.47 m/s, 66° | 0 W/m² | - |
| 1777978203 | 11.11° C | 51% | 1008.7 hPa | 0 mm | 1.34 m/s, 17° | 0 W/m² | - |
| 1777977900 | 11.11° C | 51% | 1008.7 hPa | 0 mm | 2.68 m/s, 42° | 0 W/m² | - |
* Rain latest hour (hover to see other rain measurements)
** Current wind speed in m/s (hover to see current wind gust speed)